Time;durP1;ratioP1;P1;durP2;ratioP2;P2;SDS_P1;SDS_P2;PMS_P1;PMS_P2;Temp;Humidity;BMP_temperature;BMP_pressure;BME280_temperature;BME280_humidity;BME280_pressure;Samples;Min_cycle;Max_cycle;Signal;HPM_P1;HPM_P2
2021/07/21 00:02:22;;;;;;;11.40;3.60;;;16.50;99.70;;;;;;5014172;28;20855;-69
2021/07/21 00:04:48;;;;;;;9.40;3.60;;;16.50;99.70;;;;;;5013946;28;20832;-68
2021/07/21 00:07:16;;;;;;;10.33;4.60;;;16.40;99.70;;;;;;5014043;28;20449;-68
2021/07/21 00:09:44;;;;;;;7.70;3.37;;;16.40;99.70;;;;;;5013452;28;20445;-69
2021/07/21 00:14:55;;;;;;;9.53;3.30;;;16.30;99.70;;;;;;5013864;28;20424;-69
2021/07/21 00:17:24;;;;;;;9.47;3.63;;;16.30;99.70;;;;;;5013901;28;20507;-68
2021/07/21 00:20:06;;;;;;;8.43;3.90;;;16.30;99.70;;;;;;5014073;28;20481;-69
2021/07/21 00:22:34;;;;;;;6.60;2.90;;;16.30;99.70;;;;;;5013801;28;20452;-68
2021/07/21 00:25:03;;;;;;;8.40;3.83;;;16.30;99.70;;;;;;5013527;28;21015;-68
2021/07/21 00:27:30;;;;;;;7.30;3.33;;;16.30;99.70;;;;;;5013800;28;20495;-69
2021/07/21 00:29:57;;;;;;;7.87;3.20;;;16.20;99.70;;;;;;5013717;28;20445;-68
2021/07/21 00:32:23;;;;;;;7.70;3.40;;;16.10;99.70;;;;;;5013700;28;20499;-68
2021/07/21 00:34:50;;;;;;;7.40;3.30;;;16.00;99.70;;;;;;5013307;28;20484;-68
2021/07/21 00:37:17;;;;;;;8.67;3.43;;;16.00;99.70;;;;;;5013575;28;20455;-68
2021/07/21 00:39:43;;;;;;;8.90;3.90;;;16.00;99.70;;;;;;5013699;28;20449;-68
2021/07/21 00:42:11;;;;;;;8.97;4.07;;;15.90;99.70;;;;;;5013369;28;20942;-69
2021/07/21 00:44:38;;;;;;;11.73;4.03;;;15.90;99.70;;;;;;5013332;28;20449;-68
2021/07/21 00:47:05;;;;;;;10.87;3.97;;;15.90;99.70;;;;;;5013494;28;20441;-69
2021/07/21 00:49:32;;;;;;;8.97;3.60;;;15.90;99.70;;;;;;5013646;28;20499;-68
2021/07/21 00:51:59;;;;;;;9.20;3.63;;;15.90;99.70;;;;;;5013454;28;20484;-69
2021/07/21 00:54:26;;;;;;;10.33;3.77;;;15.80;99.70;;;;;;5013281;28;20449;-69
2021/07/21 00:56:53;;;;;;;6.93;3.70;;;15.80;99.70;;;;;;5013409;28;20449;-69
2021/07/21 00:59:21;;;;;;;8.20;4.10;;;15.80;99.70;;;;;;5013326;28;20807;-69
2021/07/21 01:01:48;;;;;;;9.57;3.70;;;15.80;99.70;;;;;;5013021;28;20492;-69
2021/07/21 01:04:15;;;;;;;8.20;3.90;;;15.80;99.70;;;;;;5012772;28;20515;-68
2021/07/21 01:06:42;;;;;;;12.40;4.07;;;15.80;99.70;;;;;;5013073;28;20441;-69
2021/07/21 01:09:09;;;;;;;11.10;4.93;;;15.80;99.70;;;;;;5012457;28;20452;-69
2021/07/21 01:11:43;;;;;;;9.67;3.50;;;15.80;99.70;;;;;;5012306;28;20468;-69
2021/07/21 01:14:16;;;;;;;8.83;4.10;;;15.70;99.70;;;;;;5012571;28;20536;-68
2021/07/21 01:16:51;;;;;;;10.00;4.70;;;15.70;99.70;;;;;;5012880;28;20449;-69
2021/07/21 01:19:23;;;;;;;12.77;3.77;;;15.70;99.70;;;;;;5012878;28;20826;-69
2021/07/21 01:22:09;;;;;;;7.67;3.13;;;15.60;99.70;;;;;;5012565;28;20485;-69
2021/07/21 01:24:47;;;;;;;7.30;4.00;;;15.60;99.70;;;;;;5012487;28;20449;-69
2021/07/21 01:27:27;;;;;;;12.57;4.40;;;15.60;99.70;;;;;;5012673;28;20460;-69
2021/07/21 01:29:58;;;;;;;8.33;3.77;;;15.60;99.70;;;;;;5012608;28;20445;-69
2021/07/21 01:32:28;;;;;;;6.50;3.13;;;15.70;99.70;;;;;;5012664;28;20456;-68
2021/07/21 01:35:00;;;;;;;6.07;2.80;;;15.70;99.70;;;;;;5012277;28;20437;-69
2021/07/21 01:37:29;;;;;;;10.90;4.27;;;15.70;99.70;;;;;;5012432;28;20450;-69
2021/07/21 01:40:00;;;;;;;8.10;4.30;;;15.70;99.70;;;;;;5012418;28;20473;-68
2021/07/21 01:42:30;;;;;;;9.37;4.30;;;15.70;99.70;;;;;;5012421;28;20948;-69
2021/07/21 01:44:59;;;;;;;10.20;3.97;;;15.80;99.70;;;;;;5012043;28;20834;-69
2021/07/21 01:47:28;;;;;;;8.53;4.10;;;15.70;99.70;;;;;;5012358;28;20964;-69
2021/07/21 01:49:56;;;;;;;17.13;6.63;;;15.60;99.70;;;;;;5012307;28;20441;-69
2021/07/21 01:52:27;;;;;;;9.03;3.70;;;15.50;99.70;;;;;;5011957;28;20457;-69
2021/07/21 01:54:56;;;;;;;9.67;4.10;;;15.50;99.70;;;;;;5011862;28;20456;-69
2021/07/21 01:57:24;;;;;;;9.57;4.20;;;15.50;99.70;;;;;;5012150;28;20448;-69
2021/07/21 01:59:53;;;;;;;9.57;4.00;;;15.50;99.70;;;;;;5012114;28;20826;-69
2021/07/21 02:02:23;;;;;;;14.20;4.20;;;15.50;99.70;;;;;;5012028;28;20437;-68
2021/07/21 02:04:53;;;;;;;10.13;4.00;;;15.50;99.70;;;;;;5011658;28;20468;-69
2021/07/21 02:07:21;;;;;;;13.33;5.40;;;15.50;99.70;;;;;;5011742;28;20856;-69
2021/07/21 02:09:48;;;;;;;13.77;5.50;;;15.50;99.70;;;;;;5011577;28;20452;-69
2021/07/21 02:12:15;;;;;;;8.20;4.30;;;15.40;99.70;;;;;;5011628;28;20476;-69
2021/07/21 02:14:44;;;;;;;12.20;4.40;;;15.40;99.70;;;;;;5011520;28;20442;-68
2021/07/21 02:17:13;;;;;;;11.73;3.73;;;15.40;99.70;;;;;;5011670;28;20449;-69
2021/07/21 02:19:40;;;;;;;9.43;4.00;;;15.40;99.70;;;;;;5011682;28;20614;-69
2021/07/21 02:22:07;;;;;;;11.30;4.23;;;15.40;99.70;;;;;;5010805;28;20496;-69
2021/07/21 02:24:35;;;;;;;10.10;4.67;;;15.40;99.70;;;;;;5011177;28;20456;-68
2021/07/21 02:27:02;;;;;;;9.63;3.90;;;15.40;99.70;;;;;;5011573;28;20452;-68
2021/07/21 02:29:29;;;;;;;10.87;4.50;;;15.40;99.70;;;;;;5011520;28;20456;-69
2021/07/21 02:32:02;;;;;;;14.00;4.70;;;15.40;99.70;;;;;;5011404;28;20473;-69
2021/07/21 02:34:30;;;;;;;10.63;4.00;;;15.30;99.70;;;;;;5011084;28;20459;-69
2021/07/21 02:36:59;;;;;;;10.70;4.53;;;15.40;99.70;;;;;;5011327;28;20465;-69
2021/07/21 02:39:26;;;;;;;10.63;4.57;;;15.40;99.70;;;;;;5011400;28;20449;-69
2021/07/21 02:41:53;;;;;;;9.80;4.00;;;15.40;99.70;;;;;;5011235;28;20485;-68
2021/07/21 02:44:20;;;;;;;11.67;4.67;;;15.30;99.70;;;;;;5010853;28;21163;-68
2021/07/21 02:46:48;;;;;;;11.07;4.13;;;15.30;99.70;;;;;;5011255;28;20449;-69
2021/07/21 02:49:15;;;;;;;7.40;3.83;;;15.20;99.70;;;;;;5011111;28;20504;-69
2021/07/21 02:51:50;;;;;;;10.40;4.27;;;15.20;99.70;;;;;;5012369;28;20500;-69
2021/07/21 02:54:27;;;;;;;9.20;4.30;;;15.20;99.70;;;;;;5010714;28;20448;-69
2021/07/21 02:56:59;;;;;;;12.00;4.37;;;15.20;99.70;;;;;;5011154;28;20592;-69
2021/07/21 02:59:38;;;;;;;11.23;3.80;;;15.10;99.70;;;;;;5011020;28;20547;-68
2021/07/21 03:02:07;;;;;;;10.30;4.10;;;15.10;99.70;;;;;;5011003;28;20543;-69
2021/07/21 03:04:35;;;;;;;7.37;3.73;;;15.10;99.70;;;;;;5010477;28;20453;-69
2021/07/21 03:07:06;;;;;;;9.13;3.80;;;15.10;99.70;;;;;;5011071;28;20458;-69
2021/07/21 03:09:34;;;;;;;10.47;4.30;;;15.00;99.70;;;;;;5010035;28;20446;-69
2021/07/21 03:12:08;;;;;;;12.00;4.10;;;15.10;99.70;;;;;;5010727;28;20470;-69
2021/07/21 03:14:37;;;;;;;11.63;4.33;;;15.10;99.70;;;;;;5010423;28;20445;-69
2021/07/21 03:17:05;;;;;;;10.87;4.40;;;15.00;99.70;;;;;;5010829;28;20511;-69
2021/07/21 03:19:33;;;;;;;9.13;4.37;;;15.00;99.70;;;;;;5010652;28;20453;-68
2021/07/21 03:22:00;;;;;;;8.47;3.63;;;15.00;99.70;;;;;;5010656;28;20485;-69
2021/07/21 03:24:29;;;;;;;12.20;5.07;;;15.00;99.70;;;;;;5010303;28;20449;-69
2021/07/21 03:26:57;;;;;;;12.03;4.40;;;14.90;99.70;;;;;;5010829;28;20457;-69
2021/07/21 03:29:25;;;;;;;14.30;4.90;;;14.90;99.70;;;;;;5010885;28;20468;-69
2021/07/21 03:31:52;;;;;;;8.73;3.77;;;15.00;99.70;;;;;;5010772;28;20461;-69
2021/07/21 03:34:21;;;;;;;12.03;4.63;;;14.90;99.70;;;;;;5010184;28;20464;-68
2021/07/21 03:36:50;;;;;;;15.43;5.23;;;14.90;99.70;;;;;;5010819;28;20502;-69
2021/07/21 03:39:18;;;;;;;12.00;4.40;;;14.80;99.70;;;;;;5010682;28;20508;-69
2021/07/21 03:41:48;;;;;;;11.70;3.70;;;14.80;99.70;;;;;;5010729;28;20496;-69
2021/07/21 03:44:19;;;;;;;9.10;4.27;;;14.80;99.70;;;;;;5010249;28;20442;-68
2021/07/21 03:46:46;;;;;;;9.17;3.80;;;14.80;99.70;;;;;;5010763;28;20449;-69
2021/07/21 03:49:17;;;;;;;12.33;3.90;;;14.80;99.70;;;;;;5010577;28;20452;-69
2021/07/21 03:51:44;;;;;;;12.23;4.10;;;14.70;99.70;;;;;;5010503;28;20813;-69
2021/07/21 03:54:13;;;;;;;12.63;4.43;;;14.70;99.70;;;;;;5010074;28;20821;-68
2021/07/21 03:56:43;;;;;;;7.00;3.80;;;14.80;99.70;;;;;;5010396;28;20879;-69
2021/07/21 03:59:15;;;;;;;8.93;3.17;;;14.80;99.70;;;;;;5010319;28;20469;-69
2021/07/21 04:01:43;;;;;;;8.17;3.13;;;14.80;99.70;;;;;;5010321;28;20992;-69
2021/07/21 04:04:13;;;;;;;8.23;3.60;;;14.70;99.70;;;;;;5009856;28;20448;-69
2021/07/21 04:06:41;;;;;;;8.97;4.00;;;14.70;99.70;;;;;;5010267;28;20967;-69
2021/07/21 04:09:11;;;;;;;10.20;4.07;;;14.70;99.70;;;;;;5009600;28;20578;-69
2021/07/21 04:11:40;;;;;;;7.77;3.60;;;14.80;99.70;;;;;;5010220;28;20462;-69
2021/07/21 04:14:10;;;;;;;9.90;3.80;;;14.90;99.70;;;;;;5009921;28;20450;-69
2021/07/21 04:16:39;;;;;;;6.40;3.57;;;14.80;99.70;;;;;;5010159;28;20456;-69
2021/07/21 04:19:07;;;;;;;10.33;4.20;;;14.80;99.70;;;;;;5010193;28;20936;-69
2021/07/21 04:21:36;;;;;;;9.00;3.60;;;14.80;99.70;;;;;;5009909;28;20485;-69
2021/07/21 04:24:03;;;;;;;9.30;4.10;;;14.90;99.70;;;;;;5009792;28;20519;-68
2021/07/21 04:26:32;;;;;;;7.93;4.03;;;14.90;99.70;;;;;;5009956;28;20445;-69
2021/07/21 04:28:59;;;;;;;9.40;4.57;;;14.90;99.70;;;;;;5010057;28;20453;-69
2021/07/21 04:31:27;;;;;;;11.17;4.20;;;15.00;99.70;;;;;;5010018;28;20813;-69
2021/07/21 04:33:56;;;;;;;12.77;4.40;;;15.00;99.70;;;;;;5009890;28;20471;-69
2021/07/21 04:36:23;;;;;;;7.67;3.93;;;15.00;99.70;;;;;;5001244;28;20472;-68
2021/07/21 04:38:51;;;;;;;11.00;4.10;;;15.00;99.70;;;;;;5000888;28;20449;-69
2021/07/21 04:41:22;;;;;;;11.93;4.10;;;15.00;99.70;;;;;;5005339;28;20492;-69
2021/07/21 04:43:49;;;;;;;12.30;4.43;;;15.10;99.70;;;;;;5016819;28;21012;-69
2021/07/21 04:46:17;;;;;;;13.30;4.17;;;15.10;99.70;;;;;;5018759;28;20448;-69
2021/07/21 04:48:45;;;;;;;10.27;4.37;;;15.10;99.70;;;;;;5012474;28;20450;-69
2021/07/21 04:51:18;;;;;;;10.70;4.07;;;15.10;99.70;;;;;;5012745;28;20500;-69
2021/07/21 04:53:44;;;;;;;13.10;4.33;;;15.20;99.70;;;;;;5026534;28;20449;-69
2021/07/21 04:56:12;;;;;;;12.77;4.53;;;15.20;99.70;;;;;;5012274;28;20460;-69
2021/07/21 04:58:38;;;;;;;8.00;4.33;;;15.30;99.70;;;;;;5013079;28;20453;-69
2021/07/21 05:01:05;;;;;;;8.20;3.73;;;15.30;99.70;;;;;;5011818;28;20988;-69
2021/07/21 05:03:33;;;;;;;8.90;4.10;;;15.40;99.70;;;;;;5013016;28;20446;-69
2021/07/21 05:05:59;;;;;;;10.97;4.27;;;15.30;99.70;;;;;;5011477;28;20477;-69
2021/07/21 05:08:27;;;;;;;11.23;4.50;;;15.40;99.70;;;;;;5011963;28;20449;-69
2021/07/21 05:10:55;;;;;;;12.40;4.73;;;15.70;99.70;;;;;;5012384;28;21004;-69
2021/07/21 05:13:21;;;;;;;10.07;4.40;;;15.70;99.70;;;;;;5012682;28;20457;-69
2021/07/21 05:15:48;;;;;;;13.67;4.63;;;15.80;99.70;;;;;;5012506;28;20445;-69
2021/07/21 05:18:15;;;;;;;9.67;4.77;;;15.90;99.70;;;;;;5012211;28;20458;-69
2021/07/21 05:20:42;;;;;;;12.30;4.93;;;15.90;99.70;;;;;;5012645;28;20462;-69
2021/07/21 05:23:09;;;;;;;12.10;4.70;;;16.10;99.70;;;;;;5012263;28;21034;-69
2021/07/21 05:25:39;;;;;;;13.70;5.13;;;16.10;99.70;;;;;;5012267;28;20449;-69
2021/07/21 05:28:06;;;;;;;10.73;4.53;;;16.10;99.70;;;;;;5016149;28;20456;-69
2021/07/21 05:30:34;;;;;;;10.30;4.47;;;16.30;99.70;;;;;;5019789;28;20466;-69
2021/07/21 05:33:01;;;;;;;9.60;4.53;;;16.30;99.70;;;;;;5030625;28;20448;-68
2021/07/21 05:35:27;;;;;;;12.17;5.20;;;16.30;99.70;;;;;;5029487;28;20447;-69
2021/07/21 05:37:55;;;;;;;10.60;4.27;;;16.40;99.70;;;;;;5029419;28;20483;-69
2021/07/21 05:40:22;;;;;;;8.53;4.00;;;16.60;99.70;;;;;;5020423;28;20469;-69
2021/07/21 05:42:50;;;;;;;11.83;4.80;;;16.50;99.70;;;;;;5010267;28;20485;-69
2021/07/21 05:45:17;;;;;;;10.27;4.70;;;16.60;99.70;;;;;;5011392;28;20453;-69
2021/07/21 05:47:44;;;;;;;11.70;4.70;;;16.60;99.70;;;;;;5012006;28;20980;-69
2021/07/21 05:50:11;;;;;;;8.50;4.37;;;16.60;99.70;;;;;;5011977;28;20523;-69
2021/07/21 05:52:38;;;;;;;11.70;4.27;;;16.70;99.70;;;;;;5009205;28;20446;-69
2021/07/21 05:55:06;;;;;;;14.13;4.50;;;16.90;99.70;;;;;;5005743;28;20508;-69
2021/07/21 05:57:33;;;;;;;9.87;4.00;;;16.90;99.70;;;;;;5011978;28;20441;-69
2021/07/21 06:00:01;;;;;;;10.53;5.73;;;16.80;99.70;;;;;;5010862;28;20468;-69
2021/07/21 06:02:28;;;;;;;10.90;4.20;;;17.10;99.70;;;;;;5011736;28;20481;-69
2021/07/21 06:04:54;;;;;;;11.57;4.80;;;17.10;99.70;;;;;;5011641;28;20451;-69
2021/07/21 06:07:21;;;;;;;12.00;4.73;;;17.20;99.70;;;;;;5011556;28;20448;-69
2021/07/21 06:09:48;;;;;;;15.87;5.10;;;17.30;99.70;;;;;;5011654;28;20445;-69
2021/07/21 06:12:15;;;;;;;12.93;4.93;;;17.40;99.70;;;;;;5011498;28;20470;-69
2021/07/21 06:14:41;;;;;;;10.43;4.33;;;17.50;99.70;;;;;;5011164;28;20553;-69
2021/07/21 06:17:09;;;;;;;10.80;4.57;;;17.40;99.70;;;;;;5011451;28;20454;-69
2021/07/21 06:19:36;;;;;;;15.13;5.77;;;17.50;99.70;;;;;;5010493;28;20465;-69
2021/07/21 06:22:04;;;;;;;9.90;4.53;;;17.90;99.70;;;;;;5011391;28;20484;-69
2021/07/21 06:24:31;;;;;;;12.40;4.27;;;18.10;99.70;;;;;;5011483;28;20468;-69
2021/07/21 06:26:59;;;;;;;10.17;4.20;;;18.20;99.70;;;;;;5008821;28;20480;-69
2021/07/21 06:29:25;;;;;;;13.87;5.40;;;18.20;99.70;;;;;;5011373;28;20446;-69
2021/07/21 06:31:52;;;;;;;12.13;5.37;;;18.50;99.70;;;;;;5011079;28;20465;-69
2021/07/21 06:34:21;;;;;;;7.20;4.20;;;19.00;99.70;;;;;;5010920;28;20825;-69
2021/07/21 06:36:48;;;;;;;15.20;5.20;;;19.60;99.70;;;;;;5010502;28;20446;-69
2021/07/21 06:39:15;;;;;;;10.10;4.20;;;19.90;99.70;;;;;;5011053;28;20984;-69
2021/07/21 06:41:41;;;;;;;10.90;4.33;;;20.30;99.70;;;;;;5010726;28;20496;-69
2021/07/21 06:44:08;;;;;;;9.63;4.30;;;20.80;99.70;;;;;;5010491;28;20448;-69
2021/07/21 06:46:35;;;;;;;11.33;5.30;;;21.20;99.70;;;;;;5010667;28;20912;-69
2021/07/21 06:49:01;;;;;;;7.80;4.40;;;21.40;99.70;;;;;;5010943;28;20447;-69
2021/07/21 06:51:29;;;;;;;12.90;4.97;;;21.60;99.70;;;;;;5010745;28;20233;-70
2021/07/21 06:53:56;;;;;;;9.70;4.97;;;22.40;99.70;;;;;;5011021;28;20221;-67
2021/07/21 06:56:23;;;;;;;8.80;4.93;;;22.70;99.70;;;;;;5010336;28;20685;-67
2021/07/21 06:58:52;;;;;;;10.07;4.40;;;23.00;99.70;;;;;;5010302;28;20202;-67
2021/07/21 07:01:20;;;;;;;7.90;4.22;;;22.60;99.70;;;;;;5010398;28;20317;-67
2021/07/21 07:03:47;;;;;;;9.38;4.70;;;23.10;99.70;;;;;;5010768;28;20698;-67
2021/07/21 07:06:14;;;;;;;8.65;4.57;;;23.10;99.70;;;;;;5010101;28;20685;-67
2021/07/21 07:08:42;;;;;;;7.50;3.75;;;23.00;99.70;;;;;;5010269;28;20206;-67
2021/07/21 07:11:09;;;;;;;7.88;4.07;;;23.20;99.70;;;;;;5010549;28;20218;-67
2021/07/21 07:13:36;;;;;;;8.93;4.28;;;23.50;99.70;;;;;;5010449;28;20209;-68
2021/07/21 07:16:03;;;;;;;11.45;4.68;;;23.50;99.70;;;;;;5010307;28;20395;-69
2021/07/21 07:18:30;;;;;;;7.15;4.32;;;22.60;99.70;;;;;;5010291;28;20260;-69
2021/07/21 07:20:57;;;;;;;8.53;3.90;;;22.60;99.70;;;;;;5010281;28;20214;-69
2021/07/21 07:23:24;;;;;;;8.20;4.60;;;22.90;99.70;;;;;;5010267;28;20716;-69
2021/07/21 07:25:54;;;;;;;9.90;3.90;;;22.20;99.70;;;;;;5010269;28;20610;-69
2021/07/21 07:28:20;;;;;;;8.50;4.03;;;22.20;99.70;;;;;;5009884;28;20677;-69
2021/07/21 07:30:47;;;;;;;8.50;4.47;;;22.10;99.70;;;;;;5010794;28;20229;-69
2021/07/21 07:33:14;;;;;;;9.47;4.30;;;22.20;99.70;;;;;;5010214;28;20735;-68
2021/07/21 07:35:41;;;;;;;9.93;4.20;;;22.00;99.70;;;;;;5010142;28;20452;-69
2021/07/21 07:38:11;;;;;;;10.93;5.13;;;22.10;99.70;;;;;;5009791;28;20448;-68
2021/07/21 07:40:38;;;;;;;11.67;4.47;;;21.80;99.70;;;;;;5010951;28;20523;-68
2021/07/21 07:43:07;;;;;;;9.20;4.10;;;21.80;99.70;;;;;;5010034;28;20492;-69
2021/07/21 07:45:34;;;;;;;8.03;3.73;;;21.60;99.70;;;;;;5009945;28;20452;-68
2021/07/21 07:48:01;;;;;;;8.43;4.37;;;21.60;99.70;;;;;;5009824;28;20486;-69
2021/07/21 07:50:28;;;;;;;9.43;4.30;;;21.50;99.70;;;;;;5010007;28;20488;-68
2021/07/21 07:52:55;;;;;;;8.90;3.77;;;21.50;99.70;;;;;;5010111;28;20524;-68
2021/07/21 07:55:22;;;;;;;9.97;4.40;;;21.40;99.70;;;;;;5009991;28;20445;-68
2021/07/21 07:57:48;;;;;;;13.33;4.17;;;21.40;99.70;;;;;;5009814;28;20456;-68
2021/07/21 08:00:18;;;;;;;10.10;4.17;;;21.30;99.70;;;;;;5009275;28;20465;-68
2021/07/21 08:02:45;;;;;;;8.53;3.97;;;21.40;99.70;;;;;;5009712;28;20485;-69
2021/07/21 08:05:13;;;;;;;8.60;3.50;;;21.50;99.70;;;;;;5009846;28;20441;-69
2021/07/21 08:07:39;;;;;;;8.20;3.90;;;21.40;99.70;;;;;;5009839;28;20460;-68
2021/07/21 08:10:11;;;;;;;7.77;4.50;;;21.60;99.70;;;;;;5010265;28;20446;-68
2021/07/21 08:12:38;;;;;;;9.73;4.27;;;21.50;99.70;;;;;;5009768;28;20437;-68
2021/07/21 08:15:06;;;;;;;10.30;4.47;;;21.30;99.70;;;;;;5009885;28;20445;-68
2021/07/21 08:17:34;;;;;;;10.47;4.30;;;21.10;99.70;;;;;;5009917;28;20445;-68
2021/07/21 08:20:01;;;;;;;10.90;4.47;;;21.20;99.70;;;;;;5010960;28;20632;-68
2021/07/21 08:22:27;;;;;;;6.77;3.90;;;21.40;99.70;;;;;;5014069;28;20484;-69
2021/07/21 08:24:54;;;;;;;11.63;4.80;;;21.40;99.70;;;;;;5013371;28;20434;-69
2021/07/21 08:27:21;;;;;;;9.30;4.20;;;21.40;99.70;;;;;;5013448;28;20442;-69
2021/07/21 08:29:48;;;;;;;9.40;4.57;;;21.50;99.70;;;;;;5013336;28;20468;-68
2021/07/21 08:32:14;;;;;;;10.30;4.60;;;21.60;99.70;;;;;;5013846;28;20492;-68
2021/07/21 08:34:42;;;;;;;5.83;3.60;;;21.50;99.70;;;;;;5013363;28;20454;-68
2021/07/21 08:37:10;;;;;;;9.03;4.10;;;21.50;99.70;;;;;;5013319;28;20445;-68
2021/07/21 08:39:37;;;;;;;10.50;4.90;;;21.40;99.70;;;;;;5013415;28;20452;-69
2021/07/21 08:42:05;;;;;;;8.43;3.60;;;21.30;99.70;;;;;;5013382;28;20465;-69
2021/07/21 08:44:32;;;;;;;9.23;3.67;;;21.50;99.70;;;;;;5012835;28;20456;-68
2021/07/21 08:46:59;;;;;;;9.53;3.90;;;21.60;99.70;;;;;;5013607;28;20445;-68
2021/07/21 08:49:26;;;;;;;8.33;4.33;;;21.70;99.70;;;;;;5013143;28;20449;-69
2021/07/21 08:51:55;;;;;;;8.30;3.93;;;22.10;99.70;;;;;;5013379;28;20477;-68
2021/07/21 08:54:23;;;;;;;11.10;3.83;;;22.20;99.70;;;;;;5014056;28;20940;-68
2021/07/21 08:56:50;;;;;;;7.53;3.80;;;22.20;99.70;;;;;;5013235;28;20544;-69
2021/07/21 08:59:17;;;;;;;7.30;3.30;;;22.00;99.70;;;;;;5012310;28;20442;-69
2021/07/21 09:01:44;;;;;;;9.57;3.77;;;22.00;99.70;;;;;;5013244;28;20548;-69
2021/07/21 09:04:12;;;;;;;6.93;3.70;;;21.90;99.70;;;;;;5012581;28;21026;-68
2021/07/21 09:06:41;;;;;;;8.13;3.93;;;22.00;99.70;;;;;;5012956;28;20438;-69
2021/07/21 09:09:10;;;;;;;7.30;4.10;;;22.10;99.70;;;;;;5013087;28;20945;-68
2021/07/21 09:11:37;;;;;;;10.70;3.67;;;22.20;99.70;;;;;;5012763;28;20470;-68
2021/07/21 09:14:04;;;;;;;6.47;3.43;;;22.30;99.70;;;;;;5012577;28;20441;-67
2021/07/21 09:16:31;;;;;;;10.53;3.77;;;22.30;99.70;;;;;;5012478;28;20452;-68
2021/07/21 09:18:57;;;;;;;7.30;3.50;;;22.30;99.70;;;;;;5012811;28;20446;-68
2021/07/21 09:21:25;;;;;;;7.30;3.40;;;22.40;99.70;;;;;;5012783;28;20569;-69
2021/07/21 09:23:54;;;;;;;9.13;3.70;;;22.40;99.70;;;;;;5012552;28;20480;-68
2021/07/21 09:26:38;;;;;;;6.87;3.60;;;22.50;99.70;;;;;;5012073;28;20442;-68
2021/07/21 09:29:05;;;;;;;9.50;3.87;;;22.40;99.70;;;;;;5012570;28;20445;-69
2021/07/21 09:31:35;;;;;;;8.10;4.13;;;22.30;99.70;;;;;;5012060;28;20481;-68
2021/07/21 09:34:12;;;;;;;12.23;4.13;;;22.50;99.70;;;;;;5012312;28;20452;-69
2021/07/21 09:36:39;;;;;;;8.57;3.77;;;22.60;99.70;;;;;;5011875;28;20453;-69
2021/07/21 09:39:06;;;;;;;7.83;3.77;;;22.80;99.70;;;;;;5012270;28;21040;-68
2021/07/21 09:41:34;;;;;;;7.13;3.93;;;22.90;99.70;;;;;;5012173;28;20469;-68
2021/07/21 09:44:03;;;;;;;6.63;3.70;;;23.10;99.70;;;;;;5012130;28;20489;-68
2021/07/21 09:46:33;;;;;;;6.90;3.70;;;23.60;99.70;;;;;;5011948;28;20448;-68
2021/07/21 09:49:00;;;;;;;10.93;4.03;;;24.10;98.70;;;;;;5012401;28;20475;-69
2021/07/21 09:51:29;;;;;;;7.87;4.10;;;24.50;94.80;;;;;;5011813;28;20476;-69
2021/07/21 09:53:56;;;;;;;9.27;4.00;;;24.80;97.50;;;;;;5012027;28;20595;-69
2021/07/21 09:56:29;;;;;;;8.70;4.13;;;25.00;95.30;;;;;;5011589;28;20212;-69
2021/07/21 09:59:22;;;;;;;6.53;3.47;;;25.10;94.20;;;;;;5011265;28;20634;-69
2021/07/21 10:01:49;;;;;;;7.57;3.88;;;25.50;92.90;;;;;;5011917;28;20225;-69
2021/07/21 10:04:30;;;;;;;7.05;3.97;;;25.60;94.90;;;;;;5011292;28;20217;-69
2021/07/21 10:06:56;;;;;;;7.80;3.80;;;26.00;93.90;;;;;;5011685;28;20201;-69
2021/07/21 10:09:25;;;;;;;8.98;3.95;;;26.10;93.90;;;;;;5011837;28;20206;-69
2021/07/21 10:11:53;;;;;;;6.47;3.70;;;26.60;92.10;;;;;;5011599;28;20764;-69
2021/07/21 10:14:20;;;;;;;7.45;3.75;;;26.40;93.10;;;;;;5011468;28;20213;-69
2021/07/21 10:16:49;;;;;;;7.63;3.60;;;26.50;91.40;;;;;;5011624;28;20205;-69
2021/07/21 10:19:21;;;;;;;6.88;3.67;;;26.10;93.80;;;;;;5011663;28;20205;-69
2021/07/21 10:21:51;;;;;;;6.40;3.60;;;25.80;94.30;;;;;;5011574;28;20691;-69
2021/07/21 10:24:18;;;;;;;9.00;4.57;;;25.60;95.70;;;;;;5011107;28;20229;-69
2021/07/21 10:26:46;;;;;;;6.67;4.17;;;25.70;93.80;;;;;;5011377;28;20228;-69
2021/07/21 10:29:13;;;;;;;9.30;3.93;;;25.70;94.10;;;;;;5011466;28;20202;-69
2021/07/21 10:31:41;;;;;;;8.23;4.07;;;25.80;93.90;;;;;;5011188;28;20713;-69
2021/07/21 10:34:10;;;;;;;7.00;4.33;;;25.70;92.80;;;;;;5010936;28;20933;-68
2021/07/21 10:36:37;;;;;;;8.07;4.03;;;25.00;92.80;;;;;;5010665;28;20447;-69
2021/07/21 10:39:09;;;;;;;7.10;3.67;;;25.10;94.90;;;;;;5011359;28;20579;-69
2021/07/21 10:41:36;;;;;;;8.30;4.20;;;25.20;94.50;;;;;;5011011;28;20488;-69
2021/07/21 10:44:03;;;;;;;8.30;3.97;;;25.00;96.20;;;;;;5010285;28;20489;-68
2021/07/21 10:46:34;;;;;;;9.23;4.53;;;24.80;96.00;;;;;;5010803;28;20827;-68
2021/07/21 10:49:24;;;;;;;7.70;4.00;;;24.70;97.30;;;;;;5011148;28;20885;-68
2021/07/21 10:52:30;;;;;;;10.60;3.93;;;24.70;96.90;;;;;;5010876;28;20476;-69
2021/07/21 10:55:00;;;;;;;10.63;4.07;;;24.90;96.30;;;;;;5010582;28;20445;-69
2021/07/21 11:00:14;;;;;;;10.67;4.17;;;24.80;94.70;;;;;;5010353;28;20425;-69
2021/07/21 11:02:41;;;;;;;9.50;4.20;;;24.50;94.00;;;;;;5010712;28;20445;-69
2021/07/21 11:05:31;;;;;;;9.57;3.90;;;24.50;96.10;;;;;;5008959;28;20489;-69
2021/07/21 11:07:59;;;;;;;7.70;3.93;;;24.30;97.90;;;;;;5010662;28;20460;-68
2021/07/21 11:10:37;;;;;;;8.50;3.87;;;24.20;96.40;;;;;;5010848;28;20469;-68
2021/07/21 11:13:05;;;;;;;7.90;3.87;;;24.20;97.40;;;;;;5010729;28;20830;-68
2021/07/21 11:15:39;;;;;;;9.23;4.37;;;24.20;96.20;;;;;;5010243;28;20465;-68
2021/07/21 11:18:42;;;;;;;8.00;4.07;;;24.20;96.20;;;;;;5010549;28;20449;-68
2021/07/21 11:21:12;;;;;;;11.43;4.07;;;23.70;96.50;;;;;;5010545;28;20565;-68
2021/07/21 11:23:46;;;;;;;7.60;3.70;;;23.80;96.50;;;;;;5010081;28;21143;-68
2021/07/21 11:26:41;;;;;;;9.13;4.00;;;23.80;97.10;;;;;;5009773;28;20832;-68
2021/07/21 11:29:44;;;;;;;9.80;4.10;;;23.90;96.70;;;;;;5010454;28;20488;-68
2021/07/21 11:32:26;;;;;;;10.50;4.40;;;24.00;96.90;;;;;;5009666;28;20473;-68
2021/07/21 11:34:53;;;;;;;7.10;3.60;;;24.20;97.20;;;;;;5009854;28;20440;-68
2021/07/21 11:37:35;;;;;;;7.40;4.53;;;24.30;95.10;;;;;;5009018;28;20441;-69
2021/07/21 11:40:15;;;;;;;8.90;3.83;;;24.10;97.90;;;;;;5010155;28;20855;-68
2021/07/21 11:42:42;;;;;;;8.43;3.87;;;24.20;99.70;;;;;;5010324;28;20850;-69
2021/07/21 11:45:18;;;;;;;8.57;4.00;;;24.10;96.10;;;;;;5009606;28;20485;-68
2021/07/21 11:47:47;;;;;;;6.53;3.30;;;24.20;95.80;;;;;;5010109;28;20995;-68
2021/07/21 11:50:17;;;;;;;9.93;4.13;;;24.20;97.20;;;;;;5010224;28;20888;-69
2021/07/21 11:52:50;;;;;;;8.73;3.53;;;24.20;96.60;;;;;;5010060;28;20457;-69
2021/07/21 11:55:17;;;;;;;9.57;4.00;;;24.20;96.30;;;;;;5013015;28;20748;-69
2021/07/21 11:57:44;;;;;;;9.37;4.27;;;24.40;96.90;;;;;;5014205;28;20441;-69
2021/07/21 12:00:11;;;;;;;8.93;4.17;;;24.40;95.30;;;;;;5013608;28;20453;-68
2021/07/21 12:02:38;;;;;;;12.20;5.00;;;24.20;97.50;;;;;;5010523;28;20921;-69
2021/07/21 12:05:07;;;;;;;11.50;4.80;;;24.20;96.40;;;;;;5000806;28;20481;-69
2021/07/21 12:07:36;;;;;;;9.57;4.73;;;24.20;97.40;;;;;;5010615;28;20456;-69
2021/07/21 12:10:13;;;;;;;9.60;4.23;;;24.10;98.20;;;;;;5000956;28;20453;-69
2021/07/21 12:12:39;;;;;;;7.37;3.83;;;23.90;97.30;;;;;;5011965;28;20457;-68
2021/07/21 12:15:08;;;;;;;9.77;4.30;;;24.00;98.40;;;;;;5009894;28;20867;-69
2021/07/21 12:17:35;;;;;;;9.20;4.20;;;24.10;97.20;;;;;;5012117;28;20847;-68
2021/07/21 12:20:05;;;;;;;10.80;4.00;;;24.30;96.30;;;;;;5013400;28;20445;-68
2021/07/21 12:22:33;;;;;;;9.47;3.90;;;24.10;95.60;;;;;;5013341;28;20448;-69
2021/07/21 12:25:02;;;;;;;7.90;4.20;;;24.10;95.30;;;;;;5013084;28;20487;-68
2021/07/21 12:27:33;;;;;;;9.53;4.57;;;24.20;97.90;;;;;;5013425;28;20944;-69
2021/07/21 12:30:00;;;;;;;10.10;4.17;;;24.40;96.00;;;;;;5013116;28;20453;-69
2021/07/21 12:32:27;;;;;;;6.83;4.20;;;24.40;95.70;;;;;;5013491;28;20499;-68
2021/07/21 12:34:56;;;;;;;10.17;3.97;;;24.50;95.80;;;;;;5012861;28;20437;-69
2021/07/21 12:37:26;;;;;;;8.17;4.17;;;24.50;95.80;;;;;;5013430;28;20447;-68
2021/07/21 12:39:55;;;;;;;10.10;3.93;;;24.50;95.70;;;;;;5011710;28;20465;-68
2021/07/21 12:42:23;;;;;;;10.57;3.67;;;24.70;95.20;;;;;;5012004;28;20441;-68
2021/07/21 12:44:54;;;;;;;8.83;4.20;;;24.50;94.50;;;;;;5012953;28;20488;-69
2021/07/21 12:47:23;;;;;;;8.97;4.13;;;24.30;95.90;;;;;;5012858;28;20449;-69
2021/07/21 12:49:51;;;;;;;10.83;3.80;;;24.20;96.50;;;;;;5013210;28;20449;-68
2021/07/21 12:52:20;;;;;;;8.70;4.23;;;24.30;95.40;;;;;;5012933;28;20480;-69
2021/07/21 12:54:53;;;;;;;11.20;4.60;;;24.30;97.00;;;;;;5012365;28;20438;-69
2021/07/21 12:57:33;;;;;;;10.83;4.10;;;24.50;96.30;;;;;;5010459;28;20820;-68
2021/07/21 13:00:05;;;;;;;7.63;3.63;;;24.50;97.30;;;;;;5011727;28;20452;-69